sensor_id;sensor_type;location;lat;lon;timestamp;temperature;humidity
16160;DHT22;8185;57.818;15.224;2022-09-13T00:00:40;12.90;99.90
16160;DHT22;8185;57.818;15.224;2022-09-13T00:03:08;12.90;99.90
16160;DHT22;8185;57.818;15.224;2022-09-13T00:05:36;12.90;99.90
16160;DHT22;8185;57.818;15.224;2022-09-13T00:08:04;12.90;99.90
16160;DHT22;8185;57.818;15.224;2022-09-13T00:10:33;12.90;99.90
16160;DHT22;8185;57.818;15.224;2022-09-13T00:13:02;12.90;99.90
16160;DHT22;8185;57.818;15.224;2022-09-13T00:15:29;12.90;99.90
16160;DHT22;8185;57.818;15.224;2022-09-13T00:17:57;12.90;99.90
16160;DHT22;8185;57.818;15.224;2022-09-13T00:20:25;12.90;99.90
16160;DHT22;8185;57.818;15.224;2022-09-13T00:22:52;12.90;99.90
16160;DHT22;8185;57.818;15.224;2022-09-13T00:25:20;13.00;99.90
16160;DHT22;8185;57.818;15.224;2022-09-13T00:27:47;13.00;99.90
16160;DHT22;8185;57.818;15.224;2022-09-13T00:30:16;13.00;99.90
16160;DHT22;8185;57.818;15.224;2022-09-13T00:32:43;13.10;99.90
16160;DHT22;8185;57.818;15.224;2022-09-13T00:35:10;13.00;99.90
16160;DHT22;8185;57.818;15.224;2022-09-13T00:37:37;13.00;99.90
16160;DHT22;8185;57.818;15.224;2022-09-13T00:40:06;13.00;99.90
16160;DHT22;8185;57.818;15.224;2022-09-13T00:42:33;13.10;99.90
16160;DHT22;8185;57.818;15.224;2022-09-13T00:45:15;13.10;99.90
16160;DHT22;8185;57.818;15.224;2022-09-13T00:47:46;13.00;99.90
16160;DHT22;8185;57.818;15.224;2022-09-13T00:50:18;13.00;99.90
16160;DHT22;8185;57.818;15.224;2022-09-13T00:52:51;13.00;99.90
16160;DHT22;8185;57.818;15.224;2022-09-13T00:55:21;13.00;99.90
16160;DHT22;8185;57.818;15.224;2022-09-13T00:57:51;13.00;99.90
16160;DHT22;8185;57.818;15.224;2022-09-13T01:00:20;12.90;99.90
16160;DHT22;8185;57.818;15.224;2022-09-13T01:02:50;13.00;99.90
16160;DHT22;8185;57.818;15.224;2022-09-13T01:05:21;12.90;99.90
16160;DHT22;8185;57.818;15.224;2022-09-13T01:07:50;12.90;99.90
16160;DHT22;8185;57.818;15.224;2022-09-13T01:10:17;12.90;99.90
16160;DHT22;8185;57.818;15.224;2022-09-13T01:12:49;12.90;99.90
16160;DHT22;8185;57.818;15.224;2022-09-13T01:15:21;12.90;99.90
16160;DHT22;8185;57.818;15.224;2022-09-13T01:17:51;12.90;99.90
16160;DHT22;8185;57.818;15.224;2022-09-13T01:20:20;13.00;99.90
16160;DHT22;8185;57.818;15.224;2022-09-13T01:23:14;13.00;99.90
16160;DHT22;8185;57.818;15.224;2022-09-13T01:31:51;12.90;99.90
16160;DHT22;8185;57.818;15.224;2022-09-13T01:34:28;12.90;99.90
16160;DHT22;8185;57.818;15.224;2022-09-13T01:37:11;12.90;99.90
16160;DHT22;8185;57.818;15.224;2022-09-13T01:40:05;12.90;99.90
16160;DHT22;8185;57.818;15.224;2022-09-13T01:42:44;12.90;99.90
16160;DHT22;8185;57.818;15.224;2022-09-13T01:45:22;12.90;99.90
16160;DHT22;8185;57.818;15.224;2022-09-13T01:47:57;12.90;99.90
16160;DHT22;8185;57.818;15.224;2022-09-13T01:50:35;13.00;99.90
16160;DHT22;8185;57.818;15.224;2022-09-13T01:53:08;13.00;99.90
16160;DHT22;8185;57.818;15.224;2022-09-13T01:55:44;13.00;99.90
16160;DHT22;8185;57.818;15.224;2022-09-13T01:58:19;12.90;99.90
16160;DHT22;8185;57.818;15.224;2022-09-13T02:00:54;12.90;99.90
16160;DHT22;8185;57.818;15.224;2022-09-13T02:03:32;12.90;99.90
16160;DHT22;8185;57.818;15.224;2022-09-13T02:06:05;12.90;99.90
16160;DHT22;8185;57.818;15.224;2022-09-13T02:08:39;12.90;99.90
16160;DHT22;8185;57.818;15.224;2022-09-13T02:11:09;12.90;99.90
16160;DHT22;8185;57.818;15.224;2022-09-13T02:13:40;12.90;99.90
16160;DHT22;8185;57.818;15.224;2022-09-13T02:16:14;12.90;99.90
16160;DHT22;8185;57.818;15.224;2022-09-13T02:18:46;12.90;99.90
16160;DHT22;8185;57.818;15.224;2022-09-13T02:21:19;12.90;99.90
16160;DHT22;8185;57.818;15.224;2022-09-13T02:23:50;12.90;99.90
16160;DHT22;8185;57.818;15.224;2022-09-13T02:26:19;12.90;99.90
16160;DHT22;8185;57.818;15.224;2022-09-13T02:28:50;13.00;99.90
16160;DHT22;8185;57.818;15.224;2022-09-13T02:31:25;13.00;99.90
16160;DHT22;8185;57.818;15.224;2022-09-13T02:33:59;13.00;99.90
16160;DHT22;8185;57.818;15.224;2022-09-13T02:36:31;13.00;99.90
16160;DHT22;8185;57.818;15.224;2022-09-13T02:39:03;13.00;99.90
16160;DHT22;8185;57.818;15.224;2022-09-13T02:41:36;13.10;99.90
16160;DHT22;8185;57.818;15.224;2022-09-13T02:44:10;13.10;99.90
16160;DHT22;8185;57.818;15.224;2022-09-13T02:46:51;13.00;99.90
16160;DHT22;8185;57.818;15.224;2022-09-13T02:49:27;13.00;99.90
16160;DHT22;8185;57.818;15.224;2022-09-13T02:52:00;13.00;99.90
16160;DHT22;8185;57.818;15.224;2022-09-13T02:54:35;13.10;99.90
16160;DHT22;8185;57.818;15.224;2022-09-13T02:57:07;13.10;99.90
16160;DHT22;8185;57.818;15.224;2022-09-13T02:59:36;13.10;99.90
16160;DHT22;8185;57.818;15.224;2022-09-13T03:02:07;13.00;99.90
16160;DHT22;8185;57.818;15.224;2022-09-13T03:04:37;13.00;99.90
16160;DHT22;8185;57.818;15.224;2022-09-13T03:07:09;13.00;99.90
16160;DHT22;8185;57.818;15.224;2022-09-13T03:09:37;13.00;99.90
16160;DHT22;8185;57.818;15.224;2022-09-13T03:15:10;13.00;99.90
16160;DHT22;8185;57.818;15.224;2022-09-13T03:17:47;12.90;99.90
16160;DHT22;8185;57.818;15.224;2022-09-13T03:20:23;12.90;99.90
16160;DHT22;8185;57.818;15.224;2022-09-13T03:23:20;12.90;99.90
16160;DHT22;8185;57.818;15.224;2022-09-13T03:26:04;12.80;99.90
16160;DHT22;8185;57.818;15.224;2022-09-13T03:28:41;12.80;99.90
16160;DHT22;8185;57.818;15.224;2022-09-13T03:31:17;12.80;99.90
16160;DHT22;8185;57.818;15.224;2022-09-13T03:33:55;12.80;99.90
16160;DHT22;8185;57.818;15.224;2022-09-13T03:36:32;12.80;99.90
16160;DHT22;8185;57.818;15.224;2022-09-13T03:39:07;12.70;99.90
16160;DHT22;8185;57.818;15.224;2022-09-13T03:41:39;12.70;99.90
16160;DHT22;8185;57.818;15.224;2022-09-13T03:44:11;12.70;99.90
16160;DHT22;8185;57.818;15.224;2022-09-13T03:46:42;12.70;99.90
16160;DHT22;8185;57.818;15.224;2022-09-13T03:49:13;12.60;99.90
16160;DHT22;8185;57.818;15.224;2022-09-13T03:51:44;12.60;99.90
16160;DHT22;8185;57.818;15.224;2022-09-13T03:54:15;12.60;99.90
16160;DHT22;8185;57.818;15.224;2022-09-13T03:56:43;12.60;99.90
16160;DHT22;8185;57.818;15.224;2022-09-13T03:59:30;12.70;99.90
16160;DHT22;8185;57.818;15.224;2022-09-13T04:01:58;12.70;99.90
16160;DHT22;8185;57.818;15.224;2022-09-13T04:04:25;12.70;99.90
16160;DHT22;8185;57.818;15.224;2022-09-13T04:06:54;12.70;99.90
16160;DHT22;8185;57.818;15.224;2022-09-13T04:09:21;12.70;99.90
16160;DHT22;8185;57.818;15.224;2022-09-13T04:11:49;12.60;99.90
16160;DHT22;8185;57.818;15.224;2022-09-13T04:14:16;12.70;99.90
16160;DHT22;8185;57.818;15.224;2022-09-13T04:16:43;12.60;99.90
16160;DHT22;8185;57.818;15.224;2022-09-13T04:19:11;12.60;99.90
16160;DHT22;8185;57.818;15.224;2022-09-13T04:21:38;12.70;99.90
16160;DHT22;8185;57.818;15.224;2022-09-13T04:24:07;12.70;99.90
16160;DHT22;8185;57.818;15.224;2022-09-13T04:26:34;12.80;99.90
16160;DHT22;8185;57.818;15.224;2022-09-13T04:29:02;12.70;99.90
16160;DHT22;8185;57.818;15.224;2022-09-13T04:31:29;12.80;99.90
16160;DHT22;8185;57.818;15.224;2022-09-13T04:33:56;12.80;99.90
16160;DHT22;8185;57.818;15.224;2022-09-13T04:36:23;12.80;99.90
16160;DHT22;8185;57.818;15.224;2022-09-13T04:38:51;12.80;99.90
16160;DHT22;8185;57.818;15.224;2022-09-13T04:41:19;12.80;99.90
16160;DHT22;8185;57.818;15.224;2022-09-13T04:43:48;12.80;99.90
16160;DHT22;8185;57.818;15.224;2022-09-13T04:46:16;12.80;99.90
16160;DHT22;8185;57.818;15.224;2022-09-13T04:48:48;12.80;99.90
16160;DHT22;8185;57.818;15.224;2022-09-13T04:51:15;12.80;99.90
16160;DHT22;8185;57.818;15.224;2022-09-13T04:53:43;12.80;99.90
16160;DHT22;8185;57.818;15.224;2022-09-13T04:56:10;12.90;99.90
16160;DHT22;8185;57.818;15.224;2022-09-13T04:58:41;12.90;99.90
16160;DHT22;8185;57.818;15.224;2022-09-13T05:01:09;12.90;99.90
16160;DHT22;8185;57.818;15.224;2022-09-13T05:03:37;12.90;99.90
16160;DHT22;8185;57.818;15.224;2022-09-13T05:06:06;12.90;99.90
16160;DHT22;8185;57.818;15.224;2022-09-13T05:08:33;12.90;99.90
16160;DHT22;8185;57.818;15.224;2022-09-13T05:11:01;12.90;99.90
16160;DHT22;8185;57.818;15.224;2022-09-13T05:13:28;12.90;99.90
16160;DHT22;8185;57.818;15.224;2022-09-13T05:15:58;12.90;99.90
16160;DHT22;8185;57.818;15.224;2022-09-13T05:18:27;12.90;99.90
16160;DHT22;8185;57.818;15.224;2022-09-13T05:20:54;13.00;99.90
16160;DHT22;8185;57.818;15.224;2022-09-13T05:23:23;13.00;99.90
16160;DHT22;8185;57.818;15.224;2022-09-13T05:25:53;13.00;99.90
16160;DHT22;8185;57.818;15.224;2022-09-13T05:28:21;13.00;99.90
16160;DHT22;8185;57.818;15.224;2022-09-13T05:30:57;13.00;99.90
16160;DHT22;8185;57.818;15.224;2022-09-13T05:33:26;13.00;99.90
16160;DHT22;8185;57.818;15.224;2022-09-13T05:35:53;13.00;99.90
16160;DHT22;8185;57.818;15.224;2022-09-13T05:38:21;13.00;99.90
16160;DHT22;8185;57.818;15.224;2022-09-13T05:40:53;13.10;99.90
16160;DHT22;8185;57.818;15.224;2022-09-13T05:43:21;13.10;99.90
16160;DHT22;8185;57.818;15.224;2022-09-13T05:45:49;13.10;99.90
16160;DHT22;8185;57.818;15.224;2022-09-13T05:48:17;13.10;99.90
16160;DHT22;8185;57.818;15.224;2022-09-13T05:50:45;13.10;99.90
16160;DHT22;8185;57.818;15.224;2022-09-13T05:53:12;13.10;99.90
16160;DHT22;8185;57.818;15.224;2022-09-13T05:55:39;13.10;99.90
16160;DHT22;8185;57.818;15.224;2022-09-13T05:58:06;13.10;99.90
16160;DHT22;8185;57.818;15.224;2022-09-13T06:00:34;13.10;99.90
16160;DHT22;8185;57.818;15.224;2022-09-13T06:03:01;13.10;99.90
16160;DHT22;8185;57.818;15.224;2022-09-13T06:05:30;13.20;99.90
16160;DHT22;8185;57.818;15.224;2022-09-13T06:07:57;13.10;99.90
16160;DHT22;8185;57.818;15.224;2022-09-13T06:10:24;13.20;99.90
16160;DHT22;8185;57.818;15.224;2022-09-13T06:12:51;13.20;99.90
16160;DHT22;8185;57.818;15.224;2022-09-13T06:15:19;13.20;99.90
16160;DHT22;8185;57.818;15.224;2022-09-13T06:17:46;13.20;99.90
16160;DHT22;8185;57.818;15.224;2022-09-13T06:20:14;13.20;99.90
16160;DHT22;8185;57.818;15.224;2022-09-13T06:22:42;13.30;99.90
16160;DHT22;8185;57.818;15.224;2022-09-13T06:25:10;13.30;99.90
16160;DHT22;8185;57.818;15.224;2022-09-13T06:27:37;13.30;99.90
16160;DHT22;8185;57.818;15.224;2022-09-13T06:30:05;13.40;99.90
16160;DHT22;8185;57.818;15.224;2022-09-13T06:32:33;13.40;99.90
16160;DHT22;8185;57.818;15.224;2022-09-13T06:35:01;13.50;99.90
16160;DHT22;8185;57.818;15.224;2022-09-13T06:37:28;13.50;99.90
16160;DHT22;8185;57.818;15.224;2022-09-13T06:39:57;13.60;99.90
16160;DHT22;8185;57.818;15.224;2022-09-13T06:42:24;13.60;99.90
16160;DHT22;8185;57.818;15.224;2022-09-13T06:44:51;13.70;99.90
16160;DHT22;8185;57.818;15.224;2022-09-13T06:47:18;13.70;99.90
16160;DHT22;8185;57.818;15.224;2022-09-13T06:49:46;13.70;99.90
16160;DHT22;8185;57.818;15.224;2022-09-13T06:52:13;13.70;99.90
16160;DHT22;8185;57.818;15.224;2022-09-13T06:54:40;13.70;99.90
16160;DHT22;8185;57.818;15.224;2022-09-13T06:57:09;13.70;99.90
16160;DHT22;8185;57.818;15.224;2022-09-13T06:59:37;13.70;99.90
16160;DHT22;8185;57.818;15.224;2022-09-13T07:02:04;13.70;99.90
16160;DHT22;8185;57.818;15.224;2022-09-13T07:04:31;13.80;99.90
16160;DHT22;8185;57.818;15.224;2022-09-13T07:06:59;13.80;99.90
16160;DHT22;8185;57.818;15.224;2022-09-13T07:09:26;13.80;99.90
16160;DHT22;8185;57.818;15.224;2022-09-13T07:11:54;13.80;99.90
16160;DHT22;8185;57.818;15.224;2022-09-13T07:14:25;13.90;99.90
16160;DHT22;8185;57.818;15.224;2022-09-13T07:16:52;14.00;99.90
16160;DHT22;8185;57.818;15.224;2022-09-13T07:19:21;14.00;99.90
16160;DHT22;8185;57.818;15.224;2022-09-13T07:21:49;14.00;99.90
16160;DHT22;8185;57.818;15.224;2022-09-13T07:24:16;14.00;99.90
16160;DHT22;8185;57.818;15.224;2022-09-13T07:26:44;14.00;99.90
16160;DHT22;8185;57.818;15.224;2022-09-13T07:29:13;14.10;99.90
16160;DHT22;8185;57.818;15.224;2022-09-13T07:31:44;14.20;99.90
16160;DHT22;8185;57.818;15.224;2022-09-13T07:34:13;14.30;99.90
16160;DHT22;8185;57.818;15.224;2022-09-13T07:36:41;14.40;99.90
16160;DHT22;8185;57.818;15.224;2022-09-13T07:39:09;14.40;99.90
16160;DHT22;8185;57.818;15.224;2022-09-13T07:41:36;14.50;99.90
16160;DHT22;8185;57.818;15.224;2022-09-13T07:44:04;14.60;99.90
16160;DHT22;8185;57.818;15.224;2022-09-13T07:46:35;14.70;99.90
16160;DHT22;8185;57.818;15.224;2022-09-13T07:49:07;14.70;99.90
16160;DHT22;8185;57.818;15.224;2022-09-13T07:51:36;14.70;99.90
16160;DHT22;8185;57.818;15.224;2022-09-13T07:54:08;14.80;99.90
16160;DHT22;8185;57.818;15.224;2022-09-13T07:56:37;14.80;99.90
16160;DHT22;8185;57.818;15.224;2022-09-13T07:59:06;14.80;99.90
16160;DHT22;8185;57.818;15.224;2022-09-13T08:01:35;15.00;99.90
16160;DHT22;8185;57.818;15.224;2022-09-13T08:04:06;15.20;99.90
16160;DHT22;8185;57.818;15.224;2022-09-13T08:06:36;15.50;99.90
16160;DHT22;8185;57.818;15.224;2022-09-13T08:09:04;15.50;99.90
16160;DHT22;8185;57.818;15.224;2022-09-13T08:11:34;15.60;99.90
16160;DHT22;8185;57.818;15.224;2022-09-13T08:14:02;15.60;99.90
16160;DHT22;8185;57.818;15.224;2022-09-13T08:16:30;15.50;99.90
16160;DHT22;8185;57.818;15.224;2022-09-13T08:18:59;15.20;99.90
16160;DHT22;8185;57.818;15.224;2022-09-13T08:21:33;15.10;99.90
16160;DHT22;8185;57.818;15.224;2022-09-13T08:24:01;14.90;99.90
16160;DHT22;8185;57.818;15.224;2022-09-13T08:26:30;14.80;99.90
16160;DHT22;8185;57.818;15.224;2022-09-13T08:28:58;14.70;99.90
16160;DHT22;8185;57.818;15.224;2022-09-13T08:31:26;14.60;99.90
16160;DHT22;8185;57.818;15.224;2022-09-13T08:33:55;14.50;99.90
16160;DHT22;8185;57.818;15.224;2022-09-13T08:36:23;14.50;99.90
16160;DHT22;8185;57.818;15.224;2022-09-13T08:38:53;14.40;99.90
16160;DHT22;8185;57.818;15.224;2022-09-13T08:41:53;14.40;99.90
16160;DHT22;8185;57.818;15.224;2022-09-13T08:44:27;14.40;99.90
16160;DHT22;8185;57.818;15.224;2022-09-13T08:47:01;14.40;99.90
16160;DHT22;8185;57.818;15.224;2022-09-13T08:49:33;14.40;99.90
16160;DHT22;8185;57.818;15.224;2022-09-13T08:52:11;14.60;99.90
16160;DHT22;8185;57.818;15.224;2022-09-13T08:54:47;14.70;99.90
16160;DHT22;8185;57.818;15.224;2022-09-13T08:57:19;14.80;99.90
16160;DHT22;8185;57.818;15.224;2022-09-13T08:59:55;14.90;99.90
16160;DHT22;8185;57.818;15.224;2022-09-13T09:02:43;14.90;99.90
16160;DHT22;8185;57.818;15.224;2022-09-13T09:05:16;14.90;99.90
16160;DHT22;8185;57.818;15.224;2022-09-13T09:07:46;14.80;99.90
16160;DHT22;8185;57.818;15.224;2022-09-13T09:10:21;14.80;99.90
16160;DHT22;8185;57.818;15.224;2022-09-13T09:12:53;14.90;99.90
16160;DHT22;8185;57.818;15.224;2022-09-13T09:15:24;14.90;99.90
16160;DHT22;8185;57.818;15.224;2022-09-13T09:17:55;15.00;99.90
16160;DHT22;8185;57.818;15.224;2022-09-13T09:20:27;15.00;99.90
16160;DHT22;8185;57.818;15.224;2022-09-13T09:23:00;15.10;99.90
16160;DHT22;8185;57.818;15.224;2022-09-13T09:25:31;15.20;99.90
16160;DHT22;8185;57.818;15.224;2022-09-13T09:28:00;15.50;99.90
16160;DHT22;8185;57.818;15.224;2022-09-13T09:30:35;15.60;99.90
16160;DHT22;8185;57.818;15.224;2022-09-13T09:33:17;15.70;99.90
16160;DHT22;8185;57.818;15.224;2022-09-13T09:35:57;15.80;99.90
16160;DHT22;8185;57.818;15.224;2022-09-13T09:38:36;14.90;99.90
16160;DHT22;8185;57.818;15.224;2022-09-13T09:41:14;15.70;99.90
16160;DHT22;8185;57.818;15.224;2022-09-13T09:43:49;15.90;99.90
16160;DHT22;8185;57.818;15.224;2022-09-13T09:46:22;15.90;99.90
16160;DHT22;8185;57.818;15.224;2022-09-13T09:49:04;15.80;99.90
16160;DHT22;8185;57.818;15.224;2022-09-13T09:51:54;15.80;99.90
16160;DHT22;8185;57.818;15.224;2022-09-13T09:54:24;15.90;99.90
16160;DHT22;8185;57.818;15.224;2022-09-13T09:56:55;16.50;99.90
16160;DHT22;8185;57.818;15.224;2022-09-13T09:59:26;17.00;99.90
16160;DHT22;8185;57.818;15.224;2022-09-13T10:01:55;16.90;99.90
16160;DHT22;8185;57.818;15.224;2022-09-13T10:04:23;17.20;99.90
16160;DHT22;8185;57.818;15.224;2022-09-13T10:07:08;16.90;99.90
16160;DHT22;8185;57.818;15.224;2022-09-13T10:09:36;16.50;99.90
16160;DHT22;8185;57.818;15.224;2022-09-13T10:12:06;16.20;99.90
16160;DHT22;8185;57.818;15.224;2022-09-13T10:14:38;16.20;99.90
16160;DHT22;8185;57.818;15.224;2022-09-13T10:17:16;15.80;99.90
16160;DHT22;8185;57.818;15.224;2022-09-13T10:19:52;15.50;99.90
16160;DHT22;8185;57.818;15.224;2022-09-13T10:22:19;15.30;99.90
16160;DHT22;8185;57.818;15.224;2022-09-13T10:24:48;15.30;99.90
16160;DHT22;8185;57.818;15.224;2022-09-13T10:27:31;15.30;99.90
16160;DHT22;8185;57.818;15.224;2022-09-13T10:30:00;15.30;99.90
16160;DHT22;8185;57.818;15.224;2022-09-13T10:32:29;15.20;99.90
16160;DHT22;8185;57.818;15.224;2022-09-13T10:35:01;15.00;99.90
16160;DHT22;8185;57.818;15.224;2022-09-13T10:37:29;15.00;99.90
16160;DHT22;8185;57.818;15.224;2022-09-13T10:40:01;15.00;99.90
16160;DHT22;8185;57.818;15.224;2022-09-13T10:42:33;15.00;99.90
16160;DHT22;8185;57.818;15.224;2022-09-13T10:45:02;15.10;99.90
16160;DHT22;8185;57.818;15.224;2022-09-13T10:47:33;15.10;99.90
16160;DHT22;8185;57.818;15.224;2022-09-13T10:50:17;16.10;99.90
16160;DHT22;8185;57.818;15.224;2022-09-13T10:52:46;16.50;99.90
16160;DHT22;8185;57.818;15.224;2022-09-13T10:55:27;16.40;99.90
16160;DHT22;8185;57.818;15.224;2022-09-13T10:58:13;16.90;99.90
16160;DHT22;8185;57.818;15.224;2022-09-13T11:03:37;17.80;99.90
16160;DHT22;8185;57.818;15.224;2022-09-13T11:06:15;18.10;99.90
16160;DHT22;8185;57.818;15.224;2022-09-13T11:08:52;18.50;99.90
16160;DHT22;8185;57.818;15.224;2022-09-13T11:11:29;18.70;99.90
16160;DHT22;8185;57.818;15.224;2022-09-13T11:14:12;19.20;99.90
16160;DHT22;8185;57.818;15.224;2022-09-13T11:16:51;19.10;99.90
16160;DHT22;8185;57.818;15.224;2022-09-13T11:19:46;18.80;99.90
16160;DHT22;8185;57.818;15.224;2022-09-13T11:22:27;18.50;99.90
16160;DHT22;8185;57.818;15.224;2022-09-13T11:25:24;18.00;99.90
16160;DHT22;8185;57.818;15.224;2022-09-13T11:28:02;18.10;99.90
16160;DHT22;8185;57.818;15.224;2022-09-13T11:30:35;18.00;99.90
16160;DHT22;8185;57.818;15.224;2022-09-13T11:33:16;18.00;99.90
16160;DHT22;8185;57.818;15.224;2022-09-13T11:35:52;17.70;99.90
16160;DHT22;8185;57.818;15.224;2022-09-13T11:38:36;17.70;99.90
16160;DHT22;8185;57.818;15.224;2022-09-13T11:41:14;17.50;99.90
16160;DHT22;8185;57.818;15.224;2022-09-13T11:43:58;17.60;99.90
16160;DHT22;8185;57.818;15.224;2022-09-13T11:46:39;17.40;99.90
16160;DHT22;8185;57.818;15.224;2022-09-13T11:52:12;16.50;99.90
16160;DHT22;8185;57.818;15.224;2022-09-13T11:54:55;16.30;99.90
16160;DHT22;8185;57.818;15.224;2022-09-13T11:57:30;16.10;99.90
16160;DHT22;8185;57.818;15.224;2022-09-13T12:00:02;16.10;99.90
16160;DHT22;8185;57.818;15.224;2022-09-13T12:02:38;16.00;99.90
16160;DHT22;8185;57.818;15.224;2022-09-13T12:05:10;16.00;99.90
16160;DHT22;8185;57.818;15.224;2022-09-13T12:07:44;15.90;99.90
16160;DHT22;8185;57.818;15.224;2022-09-13T12:10:17;15.80;99.90
16160;DHT22;8185;57.818;15.224;2022-09-13T12:12:47;15.60;99.90
16160;DHT22;8185;57.818;15.224;2022-09-13T12:15:21;15.50;99.90
16160;DHT22;8185;57.818;15.224;2022-09-13T12:17:55;15.30;99.90
16160;DHT22;8185;57.818;15.224;2022-09-13T12:20:30;15.40;99.90
16160;DHT22;8185;57.818;15.224;2022-09-13T12:23:01;15.40;99.90
16160;DHT22;8185;57.818;15.224;2022-09-13T12:25:36;15.30;99.90
16160;DHT22;8185;57.818;15.224;2022-09-13T12:28:12;15.40;99.90
16160;DHT22;8185;57.818;15.224;2022-09-13T12:30:46;15.50;99.90
16160;DHT22;8185;57.818;15.224;2022-09-13T12:33:19;15.70;99.90
16160;DHT22;8185;57.818;15.224;2022-09-13T12:41:49;15.90;99.90
16160;DHT22;8185;57.818;15.224;2022-09-13T12:44:55;16.00;99.90
16160;DHT22;8185;57.818;15.224;2022-09-13T12:47:40;16.20;99.90
16160;DHT22;8185;57.818;15.224;2022-09-13T12:53:33;15.80;99.90
16160;DHT22;8185;57.818;15.224;2022-09-13T12:59:16;15.80;99.90
16160;DHT22;8185;57.818;15.224;2022-09-13T13:01:48;16.10;99.90
16160;DHT22;8185;57.818;15.224;2022-09-13T13:04:19;16.20;99.90
16160;DHT22;8185;57.818;15.224;2022-09-13T13:06:52;16.20;99.90
16160;DHT22;8185;57.818;15.224;2022-09-13T13:09:26;16.30;99.90
16160;DHT22;8185;57.818;15.224;2022-09-13T13:11:56;16.20;99.90
16160;DHT22;8185;57.818;15.224;2022-09-13T13:14:46;16.30;99.90
16160;DHT22;8185;57.818;15.224;2022-09-13T13:17:39;16.30;99.90
16160;DHT22;8185;57.818;15.224;2022-09-13T13:20:43;16.30;99.90
16160;DHT22;8185;57.818;15.224;2022-09-13T13:23:31;16.40;99.90
16160;DHT22;8185;57.818;15.224;2022-09-13T13:26:08;15.90;99.90
16160;DHT22;8185;57.818;15.224;2022-09-13T13:28:51;15.90;99.90
16160;DHT22;8185;57.818;15.224;2022-09-13T13:31:34;15.70;99.90
16160;DHT22;8185;57.818;15.224;2022-09-13T13:36:46;16.60;99.90
16160;DHT22;8185;57.818;15.224;2022-09-13T13:42:23;16.90;99.90
16160;DHT22;8185;57.818;15.224;2022-09-13T13:45:16;16.10;99.90
16160;DHT22;8185;57.818;15.224;2022-09-13T13:48:06;15.90;99.90
16160;DHT22;8185;57.818;15.224;2022-09-13T13:50:34;15.70;99.90
16160;DHT22;8185;57.818;15.224;2022-09-13T13:53:20;15.60;99.90
16160;DHT22;8185;57.818;15.224;2022-09-13T13:55:48;15.50;99.90
16160;DHT22;8185;57.818;15.224;2022-09-13T13:58:50;15.40;99.90
16160;DHT22;8185;57.818;15.224;2022-09-13T14:01:24;15.30;99.90
16160;DHT22;8185;57.818;15.224;2022-09-13T14:04:25;15.30;99.90
16160;DHT22;8185;57.818;15.224;2022-09-13T14:07:04;15.30;99.90
16160;DHT22;8185;57.818;15.224;2022-09-13T14:09:39;15.40;99.90
16160;DHT22;8185;57.818;15.224;2022-09-13T14:12:24;15.40;99.90
16160;DHT22;8185;57.818;15.224;2022-09-13T14:15:07;15.30;99.90
16160;DHT22;8185;57.818;15.224;2022-09-13T14:18:08;15.30;99.90
16160;DHT22;8185;57.818;15.224;2022-09-13T14:20:57;15.20;99.90
16160;DHT22;8185;57.818;15.224;2022-09-13T14:23:24;15.10;99.90
16160;DHT22;8185;57.818;15.224;2022-09-13T14:25:54;14.90;99.90
16160;DHT22;8185;57.818;15.224;2022-09-13T14:28:22;14.80;99.90
16160;DHT22;8185;57.818;15.224;2022-09-13T14:30:54;14.70;99.90
16160;DHT22;8185;57.818;15.224;2022-09-13T14:33:24;14.60;99.90
16160;DHT22;8185;57.818;15.224;2022-09-13T14:36:01;14.60;99.90
16160;DHT22;8185;57.818;15.224;2022-09-13T14:38:31;14.60;99.90
16160;DHT22;8185;57.818;15.224;2022-09-13T14:41:10;14.50;99.90
16160;DHT22;8185;57.818;15.224;2022-09-13T14:43:38;14.30;99.90
16160;DHT22;8185;57.818;15.224;2022-09-13T14:46:09;14.00;99.90
16160;DHT22;8185;57.818;15.224;2022-09-13T14:48:40;13.70;99.90
16160;DHT22;8185;57.818;15.224;2022-09-13T14:51:14;13.40;99.90
16160;DHT22;8185;57.818;15.224;2022-09-13T14:53:46;13.10;99.90
16160;DHT22;8185;57.818;15.224;2022-09-13T14:56:18;13.00;99.90
16160;DHT22;8185;57.818;15.224;2022-09-13T14:58:50;12.90;99.90
16160;DHT22;8185;57.818;15.224;2022-09-13T15:01:29;12.70;99.90
16160;DHT22;8185;57.818;15.224;2022-09-13T15:03:58;12.70;99.90
16160;DHT22;8185;57.818;15.224;2022-09-13T15:06:28;13.80;99.90
16160;DHT22;8185;57.818;15.224;2022-09-13T15:08:59;15.50;99.90
16160;DHT22;8185;57.818;15.224;2022-09-13T15:11:29;15.40;99.90
16160;DHT22;8185;57.818;15.224;2022-09-13T15:14:22;14.80;99.90
16160;DHT22;8185;57.818;15.224;2022-09-13T15:16:53;14.00;99.90
16160;DHT22;8185;57.818;15.224;2022-09-13T15:19:36;13.70;99.90
16160;DHT22;8185;57.818;15.224;2022-09-13T15:22:19;13.40;99.90
16160;DHT22;8185;57.818;15.224;2022-09-13T15:24:49;13.10;99.90
16160;DHT22;8185;57.818;15.224;2022-09-13T15:27:26;12.90;99.90
16160;DHT22;8185;57.818;15.224;2022-09-13T15:29:56;12.90;99.90
16160;DHT22;8185;57.818;15.224;2022-09-13T15:32:30;12.80;99.90
16160;DHT22;8185;57.818;15.224;2022-09-13T15:34:59;12.80;99.90
16160;DHT22;8185;57.818;15.224;2022-09-13T15:37:30;12.70;99.90
16160;DHT22;8185;57.818;15.224;2022-09-13T15:40:19;12.70;99.90
16160;DHT22;8185;57.818;15.224;2022-09-13T15:42:48;12.60;99.90
16160;DHT22;8185;57.818;15.224;2022-09-13T15:45:16;12.60;99.90
16160;DHT22;8185;57.818;15.224;2022-09-13T15:47:47;12.60;99.90
16160;DHT22;8185;57.818;15.224;2022-09-13T15:50:19;12.60;99.90
16160;DHT22;8185;57.818;15.224;2022-09-13T15:52:47;12.50;99.90
16160;DHT22;8185;57.818;15.224;2022-09-13T15:55:15;12.60;99.90
16160;DHT22;8185;57.818;15.224;2022-09-13T15:57:43;12.50;99.90
16160;DHT22;8185;57.818;15.224;2022-09-13T16:00:15;12.50;99.90
16160;DHT22;8185;57.818;15.224;2022-09-13T16:02:43;12.50;99.90
16160;DHT22;8185;57.818;15.224;2022-09-13T16:05:12;12.50;99.90
16160;DHT22;8185;57.818;15.224;2022-09-13T16:07:41;12.40;99.90
16160;DHT22;8185;57.818;15.224;2022-09-13T16:10:14;12.40;99.90
16160;DHT22;8185;57.818;15.224;2022-09-13T16:12:43;12.40;99.90
16160;DHT22;8185;57.818;15.224;2022-09-13T16:15:10;12.40;99.90
16160;DHT22;8185;57.818;15.224;2022-09-13T16:17:39;12.40;99.90
16160;DHT22;8185;57.818;15.224;2022-09-13T16:20:12;12.40;99.90
16160;DHT22;8185;57.818;15.224;2022-09-13T16:22:40;12.40;99.90
16160;DHT22;8185;57.818;15.224;2022-09-13T16:25:08;12.40;99.90
16160;DHT22;8185;57.818;15.224;2022-09-13T16:27:36;12.40;99.90
16160;DHT22;8185;57.818;15.224;2022-09-13T16:30:04;12.40;99.90
16160;DHT22;8185;57.818;15.224;2022-09-13T16:32:32;12.40;99.90
16160;DHT22;8185;57.818;15.224;2022-09-13T16:34:59;12.40;99.90
16160;DHT22;8185;57.818;15.224;2022-09-13T16:37:28;12.40;99.90